sensor_id;sensor_type;location;lat;lon;timestamp;P1;durP1;ratioP1;P2;durP2;ratioP2
8993;SDS011;4532;50.886;4.700;2022-10-31T00:03:57;15.97;;;9.53;;
8993;SDS011;4532;50.886;4.700;2022-10-31T00:06:27;15.02;;;10.15;;
8993;SDS011;4532;50.886;4.700;2022-10-31T00:08:55;12.77;;;9.48;;
8993;SDS011;4532;50.886;4.700;2022-10-31T00:11:24;16.77;;;11.10;;
8993;SDS011;4532;50.886;4.700;2022-10-31T00:13:52;15.07;;;10.23;;
8993;SDS011;4532;50.886;4.700;2022-10-31T00:16:21;13.23;;;9.90;;
8993;SDS011;4532;50.886;4.700;2022-10-31T00:18:53;14.73;;;9.52;;
8993;SDS011;4532;50.886;4.700;2022-10-31T00:21:22;16.83;;;10.40;;
8993;SDS011;4532;50.886;4.700;2022-10-31T00:23:51;17.15;;;10.45;;
8993;SDS011;4532;50.886;4.700;2022-10-31T00:26:18;14.77;;;9.57;;
8993;SDS011;4532;50.886;4.700;2022-10-31T00:28:45;16.35;;;9.95;;
8993;SDS011;4532;50.886;4.700;2022-10-31T00:31:13;13.67;;;10.27;;
8993;SDS011;4532;50.886;4.700;2022-10-31T00:33:40;14.13;;;10.43;;
8993;SDS011;4532;50.886;4.700;2022-10-31T00:36:10;15.63;;;10.02;;
8993;SDS011;4532;50.886;4.700;2022-10-31T00:38:45;13.67;;;9.97;;
8993;SDS011;4532;50.886;4.700;2022-10-31T00:41:13;14.43;;;9.43;;
8993;SDS011;4532;50.886;4.700;2022-10-31T00:43:42;15.33;;;9.50;;
8993;SDS011;4532;50.886;4.700;2022-10-31T00:46:10;12.75;;;9.55;;
8993;SDS011;4532;50.886;4.700;2022-10-31T00:48:38;16.20;;;10.33;;
8993;SDS011;4532;50.886;4.700;2022-10-31T00:51:05;13.93;;;9.43;;
8993;SDS011;4532;50.886;4.700;2022-10-31T00:53:33;19.37;;;9.60;;
8993;SDS011;4532;50.886;4.700;2022-10-31T00:56:00;14.60;;;9.50;;
8993;SDS011;4532;50.886;4.700;2022-10-31T00:58:27;17.13;;;9.88;;
8993;SDS011;4532;50.886;4.700;2022-10-31T01:00:55;16.17;;;9.90;;
8993;SDS011;4532;50.886;4.700;2022-10-31T01:03:23;13.43;;;9.60;;
8993;SDS011;4532;50.886;4.700;2022-10-31T01:08:27;14.60;;;10.03;;
8993;SDS011;4532;50.886;4.700;2022-10-31T01:11:02;14.57;;;9.33;;
8993;SDS011;4532;50.886;4.700;2022-10-31T01:13:33;14.33;;;10.00;;
8993;SDS011;4532;50.886;4.700;2022-10-31T01:16:01;15.73;;;9.97;;
8993;SDS011;4532;50.886;4.700;2022-10-31T01:18:31;12.30;;;10.13;;
8993;SDS011;4532;50.886;4.700;2022-10-31T01:21:02;14.57;;;10.07;;
8993;SDS011;4532;50.886;4.700;2022-10-31T01:23:34;17.03;;;10.20;;
8993;SDS011;4532;50.886;4.700;2022-10-31T01:26:09;12.53;;;9.60;;
8993;SDS011;4532;50.886;4.700;2022-10-31T01:28:48;14.33;;;9.80;;
8993;SDS011;4532;50.886;4.700;2022-10-31T01:31:17;21.73;;;9.90;;
8993;SDS011;4532;50.886;4.700;2022-10-31T01:33:46;14.82;;;9.77;;
8993;SDS011;4532;50.886;4.700;2022-10-31T01:36:18;13.67;;;9.67;;
8993;SDS011;4532;50.886;4.700;2022-10-31T01:38:59;14.80;;;9.57;;
8993;SDS011;4532;50.886;4.700;2022-10-31T01:41:29;15.60;;;9.57;;
8993;SDS011;4532;50.886;4.700;2022-10-31T01:43:59;12.90;;;9.73;;
8993;SDS011;4532;50.886;4.700;2022-10-31T01:46:36;13.87;;;9.53;;
8993;SDS011;4532;50.886;4.700;2022-10-31T01:49:09;13.63;;;9.95;;
8993;SDS011;4532;50.886;4.700;2022-10-31T01:51:47;13.00;;;9.20;;
8993;SDS011;4532;50.886;4.700;2022-10-31T01:54:25;12.35;;;9.15;;
8993;SDS011;4532;50.886;4.700;2022-10-31T01:56:58;14.25;;;10.35;;
8993;SDS011;4532;50.886;4.700;2022-10-31T01:59:29;14.97;;;9.50;;
8993;SDS011;4532;50.886;4.700;2022-10-31T02:02:03;13.65;;;9.85;;
8993;SDS011;4532;50.886;4.700;2022-10-31T02:04:30;14.37;;;9.60;;
8993;SDS011;4532;50.886;4.700;2022-10-31T02:07:00;16.90;;;9.93;;
8993;SDS011;4532;50.886;4.700;2022-10-31T02:09:31;13.87;;;9.63;;
8993;SDS011;4532;50.886;4.700;2022-10-31T02:11:59;14.73;;;9.63;;
8993;SDS011;4532;50.886;4.700;2022-10-31T02:14:30;13.53;;;9.90;;
8993;SDS011;4532;50.886;4.700;2022-10-31T02:17:02;11.90;;;9.23;;
8993;SDS011;4532;50.886;4.700;2022-10-31T02:22:25;14.60;;;9.30;;
8993;SDS011;4532;50.886;4.700;2022-10-31T02:33:45;11.87;;;9.07;;
8993;SDS011;4532;50.886;4.700;2022-10-31T02:38:56;14.93;;;10.00;;
8993;SDS011;4532;50.886;4.700;2022-10-31T02:41:44;14.03;;;9.60;;
8993;SDS011;4532;50.886;4.700;2022-10-31T02:44:35;13.63;;;9.43;;
8993;SDS011;4532;50.886;4.700;2022-10-31T02:47:14;14.80;;;9.60;;
8993;SDS011;4532;50.886;4.700;2022-10-31T02:52:23;10.80;;;8.87;;
8993;SDS011;4532;50.886;4.700;2022-10-31T02:54:52;14.70;;;10.13;;
8993;SDS011;4532;50.886;4.700;2022-10-31T02:57:23;16.07;;;10.40;;
8993;SDS011;4532;50.886;4.700;2022-10-31T02:59:55;10.97;;;9.20;;
8993;SDS011;4532;50.886;4.700;2022-10-31T03:16:05;13.37;;;9.47;;
8993;SDS011;4532;50.886;4.700;2022-10-31T03:18:59;14.53;;;9.40;;
8993;SDS011;4532;50.886;4.700;2022-10-31T03:21:33;14.33;;;9.67;;
8993;SDS011;4532;50.886;4.700;2022-10-31T03:24:08;13.00;;;9.43;;
8993;SDS011;4532;50.886;4.700;2022-10-31T03:26:44;16.40;;;10.17;;
8993;SDS011;4532;50.886;4.700;2022-10-31T03:29:15;12.37;;;9.10;;
8993;SDS011;4532;50.886;4.700;2022-10-31T03:31:47;13.10;;;9.80;;
8993;SDS011;4532;50.886;4.700;2022-10-31T03:34:18;13.93;;;10.13;;
8993;SDS011;4532;50.886;4.700;2022-10-31T03:36:49;13.80;;;9.43;;
8993;SDS011;4532;50.886;4.700;2022-10-31T03:39:20;12.97;;;9.47;;
8993;SDS011;4532;50.886;4.700;2022-10-31T03:42:25;17.57;;;9.97;;
8993;SDS011;4532;50.886;4.700;2022-10-31T03:44:53;12.83;;;9.93;;
8993;SDS011;4532;50.886;4.700;2022-10-31T03:47:43;11.93;;;9.43;;
8993;SDS011;4532;50.886;4.700;2022-10-31T03:50:12;13.30;;;9.23;;
8993;SDS011;4532;50.886;4.700;2022-10-31T03:52:45;13.73;;;9.47;;
8993;SDS011;4532;50.886;4.700;2022-10-31T03:55:31;12.17;;;9.30;;
8993;SDS011;4532;50.886;4.700;2022-10-31T03:58:21;14.50;;;9.20;;
8993;SDS011;4532;50.886;4.700;2022-10-31T04:01:06;13.53;;;9.33;;
8993;SDS011;4532;50.886;4.700;2022-10-31T04:03:38;12.17;;;9.40;;
8993;SDS011;4532;50.886;4.700;2022-10-31T04:06:06;12.27;;;8.83;;
8993;SDS011;4532;50.886;4.700;2022-10-31T04:08:40;12.40;;;9.70;;
8993;SDS011;4532;50.886;4.700;2022-10-31T04:11:12;12.87;;;9.57;;
8993;SDS011;4532;50.886;4.700;2022-10-31T04:13:42;12.57;;;9.83;;
8993;SDS011;4532;50.886;4.700;2022-10-31T04:16:12;12.37;;;8.80;;
8993;SDS011;4532;50.886;4.700;2022-10-31T04:18:43;12.93;;;8.93;;
8993;SDS011;4532;50.886;4.700;2022-10-31T04:21:10;11.20;;;8.53;;
8993;SDS011;4532;50.886;4.700;2022-10-31T04:23:37;15.77;;;9.47;;
8993;SDS011;4532;50.886;4.700;2022-10-31T04:26:04;14.00;;;9.10;;
8993;SDS011;4532;50.886;4.700;2022-10-31T04:28:32;11.50;;;8.73;;
8993;SDS011;4532;50.886;4.700;2022-10-31T04:31:00;13.97;;;9.17;;
8993;SDS011;4532;50.886;4.700;2022-10-31T04:33:27;12.77;;;9.13;;
8993;SDS011;4532;50.886;4.700;2022-10-31T04:35:54;13.83;;;9.07;;
8993;SDS011;4532;50.886;4.700;2022-10-31T04:38:21;11.70;;;8.70;;
8993;SDS011;4532;50.886;4.700;2022-10-31T04:40:48;12.97;;;8.97;;
8993;SDS011;4532;50.886;4.700;2022-10-31T04:43:16;13.13;;;9.40;;
8993;SDS011;4532;50.886;4.700;2022-10-31T04:45:43;14.20;;;8.60;;
8993;SDS011;4532;50.886;4.700;2022-10-31T04:48:10;15.50;;;9.80;;
8993;SDS011;4532;50.886;4.700;2022-10-31T04:50:37;10.07;;;8.63;;
8993;SDS011;4532;50.886;4.700;2022-10-31T04:53:04;12.90;;;9.33;;
8993;SDS011;4532;50.886;4.700;2022-10-31T04:55:33;12.80;;;8.83;;
8993;SDS011;4532;50.886;4.700;2022-10-31T04:58:02;12.83;;;9.33;;
8993;SDS011;4532;50.886;4.700;2022-10-31T05:00:32;13.67;;;9.13;;
8993;SDS011;4532;50.886;4.700;2022-10-31T05:02:59;14.80;;;10.13;;
8993;SDS011;4532;50.886;4.700;2022-10-31T05:05:28;16.93;;;9.60;;
8993;SDS011;4532;50.886;4.700;2022-10-31T05:07:56;16.00;;;9.93;;
8993;SDS011;4532;50.886;4.700;2022-10-31T05:10:25;14.63;;;10.07;;
8993;SDS011;4532;50.886;4.700;2022-10-31T05:12:55;21.30;;;10.23;;
8993;SDS011;4532;50.886;4.700;2022-10-31T05:15:29;14.97;;;10.17;;
8993;SDS011;4532;50.886;4.700;2022-10-31T05:17:59;12.33;;;9.43;;
8993;SDS011;4532;50.886;4.700;2022-10-31T05:20:29;14.07;;;9.17;;
8993;SDS011;4532;50.886;4.700;2022-10-31T05:22:58;14.10;;;9.87;;
8993;SDS011;4532;50.886;4.700;2022-10-31T05:25:26;14.57;;;9.50;;
8993;SDS011;4532;50.886;4.700;2022-10-31T05:27:54;13.07;;;9.27;;
8993;SDS011;4532;50.886;4.700;2022-10-31T05:30:26;12.67;;;9.97;;
8993;SDS011;4532;50.886;4.700;2022-10-31T05:32:55;15.63;;;10.20;;
8993;SDS011;4532;50.886;4.700;2022-10-31T05:35:30;15.53;;;10.33;;
8993;SDS011;4532;50.886;4.700;2022-10-31T05:37:58;12.63;;;9.70;;
8993;SDS011;4532;50.886;4.700;2022-10-31T05:40:26;15.27;;;9.47;;
8993;SDS011;4532;50.886;4.700;2022-10-31T05:42:54;12.87;;;9.30;;
8993;SDS011;4532;50.886;4.700;2022-10-31T05:45:22;15.90;;;9.77;;
8993;SDS011;4532;50.886;4.700;2022-10-31T05:47:57;14.03;;;9.27;;
8993;SDS011;4532;50.886;4.700;2022-10-31T05:50:29;14.93;;;9.20;;
8993;SDS011;4532;50.886;4.700;2022-10-31T05:53:01;16.17;;;9.77;;
8993;SDS011;4532;50.886;4.700;2022-10-31T05:55:32;14.00;;;10.07;;
8993;SDS011;4532;50.886;4.700;2022-10-31T05:57:59;14.03;;;10.00;;
8993;SDS011;4532;50.886;4.700;2022-10-31T06:00:28;13.03;;;9.37;;
8993;SDS011;4532;50.886;4.700;2022-10-31T06:03:00;16.07;;;9.40;;
8993;SDS011;4532;50.886;4.700;2022-10-31T06:05:32;11.00;;;9.07;;
8993;SDS011;4532;50.886;4.700;2022-10-31T06:07:59;17.53;;;9.70;;
8993;SDS011;4532;50.886;4.700;2022-10-31T06:10:28;14.00;;;9.23;;
8993;SDS011;4532;50.886;4.700;2022-10-31T06:12:57;13.83;;;9.57;;
8993;SDS011;4532;50.886;4.700;2022-10-31T06:15:24;14.87;;;9.80;;
8993;SDS011;4532;50.886;4.700;2022-10-31T06:17:59;14.10;;;9.83;;
8993;SDS011;4532;50.886;4.700;2022-10-31T06:20:30;13.53;;;9.87;;
8993;SDS011;4532;50.886;4.700;2022-10-31T06:22:58;13.50;;;9.40;;
8993;SDS011;4532;50.886;4.700;2022-10-31T06:25:27;17.37;;;9.27;;
8993;SDS011;4532;50.886;4.700;2022-10-31T06:27:54;13.00;;;9.23;;
8993;SDS011;4532;50.886;4.700;2022-10-31T06:30:22;15.40;;;10.57;;
8993;SDS011;4532;50.886;4.700;2022-10-31T06:32:54;14.17;;;9.67;;
8993;SDS011;4532;50.886;4.700;2022-10-31T06:35:28;14.57;;;9.07;;
8993;SDS011;4532;50.886;4.700;2022-10-31T06:37:55;19.33;;;10.93;;
8993;SDS011;4532;50.886;4.700;2022-10-31T06:40:22;21.93;;;10.23;;
8993;SDS011;4532;50.886;4.700;2022-10-31T06:42:56;25.30;;;10.90;;
8993;SDS011;4532;50.886;4.700;2022-10-31T06:45:25;20.03;;;10.63;;
8993;SDS011;4532;50.886;4.700;2022-10-31T06:47:52;16.17;;;10.40;;
8993;SDS011;4532;50.886;4.700;2022-10-31T06:50:42;21.33;;;10.63;;
8993;SDS011;4532;50.886;4.700;2022-10-31T06:53:09;23.37;;;10.80;;
8993;SDS011;4532;50.886;4.700;2022-10-31T06:55:37;21.23;;;11.40;;
8993;SDS011;4532;50.886;4.700;2022-10-31T06:58:08;16.57;;;9.97;;
8993;SDS011;4532;50.886;4.700;2022-10-31T07:00:36;18.77;;;10.47;;
8993;SDS011;4532;50.886;4.700;2022-10-31T07:03:08;21.93;;;10.67;;
8993;SDS011;4532;50.886;4.700;2022-10-31T07:05:37;20.13;;;10.93;;
8993;SDS011;4532;50.886;4.700;2022-10-31T07:08:06;19.80;;;11.33;;
8993;SDS011;4532;50.886;4.700;2022-10-31T07:10:35;19.43;;;12.17;;
8993;SDS011;4532;50.886;4.700;2022-10-31T07:13:11;19.60;;;11.73;;
8993;SDS011;4532;50.886;4.700;2022-10-31T07:15:40;21.60;;;12.23;;
8993;SDS011;4532;50.886;4.700;2022-10-31T07:18:09;15.97;;;11.17;;
8993;SDS011;4532;50.886;4.700;2022-10-31T07:20:37;17.83;;;10.93;;
8993;SDS011;4532;50.886;4.700;2022-10-31T07:23:04;14.43;;;10.67;;
8993;SDS011;4532;50.886;4.700;2022-10-31T07:25:32;13.20;;;10.53;;
8993;SDS011;4532;50.886;4.700;2022-10-31T07:27:59;16.17;;;10.90;;
8993;SDS011;4532;50.886;4.700;2022-10-31T07:30:29;13.20;;;10.33;;
8993;SDS011;4532;50.886;4.700;2022-10-31T07:32:59;14.80;;;10.47;;
8993;SDS011;4532;50.886;4.700;2022-10-31T07:35:27;14.03;;;10.93;;
8993;SDS011;4532;50.886;4.700;2022-10-31T07:37:54;14.57;;;10.17;;
8993;SDS011;4532;50.886;4.700;2022-10-31T07:40:22;15.07;;;10.20;;
8993;SDS011;4532;50.886;4.700;2022-10-31T07:42:51;15.53;;;10.63;;
8993;SDS011;4532;50.886;4.700;2022-10-31T07:45:19;14.90;;;10.47;;
8993;SDS011;4532;50.886;4.700;2022-10-31T07:47:51;16.17;;;10.87;;
8993;SDS011;4532;50.886;4.700;2022-10-31T07:50:20;15.67;;;10.37;;
8993;SDS011;4532;50.886;4.700;2022-10-31T07:52:48;17.80;;;11.50;;
8993;SDS011;4532;50.886;4.700;2022-10-31T07:55:26;16.30;;;11.03;;
8993;SDS011;4532;50.886;4.700;2022-10-31T07:57:57;15.13;;;10.83;;
8993;SDS011;4532;50.886;4.700;2022-10-31T08:00:28;13.47;;;10.47;;
8993;SDS011;4532;50.886;4.700;2022-10-31T08:03:18;13.83;;;10.03;;
8993;SDS011;4532;50.886;4.700;2022-10-31T08:05:44;18.37;;;9.67;;
8993;SDS011;4532;50.886;4.700;2022-10-31T08:08:12;13.23;;;10.20;;
8993;SDS011;4532;50.886;4.700;2022-10-31T08:10:41;18.57;;;11.07;;
8993;SDS011;4532;50.886;4.700;2022-10-31T08:13:09;14.13;;;11.00;;
8993;SDS011;4532;50.886;4.700;2022-10-31T08:15:38;14.27;;;11.10;;
8993;SDS011;4532;50.886;4.700;2022-10-31T08:18:14;15.60;;;10.87;;
8993;SDS011;4532;50.886;4.700;2022-10-31T08:20:42;15.87;;;10.70;;
8993;SDS011;4532;50.886;4.700;2022-10-31T08:23:10;16.70;;;11.07;;
8993;SDS011;4532;50.886;4.700;2022-10-31T08:25:43;16.03;;;9.93;;
8993;SDS011;4532;50.886;4.700;2022-10-31T08:28:10;17.30;;;10.77;;
8993;SDS011;4532;50.886;4.700;2022-10-31T08:30:38;21.00;;;10.37;;
8993;SDS011;4532;50.886;4.700;2022-10-31T08:33:09;23.30;;;11.00;;
8993;SDS011;4532;50.886;4.700;2022-10-31T08:35:44;23.07;;;10.63;;
8993;SDS011;4532;50.886;4.700;2022-10-31T08:38:12;20.60;;;11.50;;
8993;SDS011;4532;50.886;4.700;2022-10-31T08:40:41;22.07;;;10.77;;
8993;SDS011;4532;50.886;4.700;2022-10-31T08:43:11;21.67;;;10.63;;
8993;SDS011;4532;50.886;4.700;2022-10-31T08:45:40;15.60;;;9.77;;
8993;SDS011;4532;50.886;4.700;2022-10-31T08:48:09;16.77;;;9.80;;
8993;SDS011;4532;50.886;4.700;2022-10-31T08:50:38;15.70;;;10.20;;
8993;SDS011;4532;50.886;4.700;2022-10-31T08:53:07;18.60;;;10.40;;
8993;SDS011;4532;50.886;4.700;2022-10-31T08:55:40;18.73;;;10.50;;
8993;SDS011;4532;50.886;4.700;2022-10-31T08:58:12;15.80;;;10.40;;
8993;SDS011;4532;50.886;4.700;2022-10-31T09:00:40;14.23;;;9.20;;
8993;SDS011;4532;50.886;4.700;2022-10-31T09:03:12;13.33;;;9.10;;
8993;SDS011;4532;50.886;4.700;2022-10-31T09:05:41;18.20;;;10.87;;
8993;SDS011;4532;50.886;4.700;2022-10-31T09:08:09;16.37;;;9.00;;
8993;SDS011;4532;50.886;4.700;2022-10-31T09:10:42;13.97;;;9.50;;
8993;SDS011;4532;50.886;4.700;2022-10-31T09:13:15;16.47;;;9.67;;
8993;SDS011;4532;50.886;4.700;2022-10-31T09:15:44;15.07;;;10.10;;
8993;SDS011;4532;50.886;4.700;2022-10-31T09:18:16;12.93;;;8.90;;
8993;SDS011;4532;50.886;4.700;2022-10-31T09:20:46;14.10;;;9.33;;
8993;SDS011;4532;50.886;4.700;2022-10-31T09:23:18;15.03;;;8.83;;
8993;SDS011;4532;50.886;4.700;2022-10-31T09:25:52;18.20;;;10.20;;
8993;SDS011;4532;50.886;4.700;2022-10-31T09:28:21;15.97;;;9.23;;
8993;SDS011;4532;50.886;4.700;2022-10-31T09:30:52;17.83;;;10.60;;
8993;SDS011;4532;50.886;4.700;2022-10-31T09:33:20;16.33;;;10.10;;
8993;SDS011;4532;50.886;4.700;2022-10-31T09:35:48;16.40;;;10.70;;
8993;SDS011;4532;50.886;4.700;2022-10-31T09:38:19;15.00;;;10.50;;
8993;SDS011;4532;50.886;4.700;2022-10-31T09:51:45;15.07;;;10.93;;
8993;SDS011;4532;50.886;4.700;2022-10-31T09:54:20;14.27;;;10.60;;
8993;SDS011;4532;50.886;4.700;2022-10-31T09:56:53;19.17;;;11.53;;
8993;SDS011;4532;50.886;4.700;2022-10-31T09:59:29;14.10;;;10.17;;
8993;SDS011;4532;50.886;4.700;2022-10-31T10:02:03;19.33;;;10.67;;
8993;SDS011;4532;50.886;4.700;2022-10-31T10:04:44;15.07;;;11.10;;
8993;SDS011;4532;50.886;4.700;2022-10-31T10:10:07;18.23;;;11.13;;
8993;SDS011;4532;50.886;4.700;2022-10-31T10:27:05;17.23;;;11.57;;
8993;SDS011;4532;50.886;4.700;2022-10-31T10:29:57;13.17;;;10.33;;
8993;SDS011;4532;50.886;4.700;2022-10-31T10:32:34;18.17;;;11.43;;
8993;SDS011;4532;50.886;4.700;2022-10-31T10:37:48;17.73;;;11.00;;
8993;SDS011;4532;50.886;4.700;2022-10-31T10:40:25;19.87;;;11.03;;
8993;SDS011;4532;50.886;4.700;2022-10-31T10:51:54;14.83;;;10.27;;
8993;SDS011;4532;50.886;4.700;2022-10-31T10:55:02;16.40;;;9.90;;
8993;SDS011;4532;50.886;4.700;2022-10-31T11:00:25;15.15;;;10.32;;
8993;SDS011;4532;50.886;4.700;2022-10-31T11:02:52;18.13;;;10.75;;
8993;SDS011;4532;50.886;4.700;2022-10-31T11:05:22;20.27;;;10.87;;
8993;SDS011;4532;50.886;4.700;2022-10-31T11:07:53;16.95;;;9.20;;
8993;SDS011;4532;50.886;4.700;2022-10-31T11:10:20;14.90;;;9.48;;
8993;SDS011;4532;50.886;4.700;2022-10-31T11:15:51;14.60;;;8.35;;
8993;SDS011;4532;50.886;4.700;2022-10-31T11:18:23;12.82;;;7.97;;
8993;SDS011;4532;50.886;4.700;2022-10-31T11:20:56;14.73;;;8.25;;
8993;SDS011;4532;50.886;4.700;2022-10-31T11:23:29;12.53;;;7.90;;
8993;SDS011;4532;50.886;4.700;2022-10-31T11:26:03;12.18;;;8.02;;
8993;SDS011;4532;50.886;4.700;2022-10-31T11:28:32;13.27;;;7.35;;
8993;SDS011;4532;50.886;4.700;2022-10-31T11:31:08;11.68;;;7.05;;
8993;SDS011;4532;50.886;4.700;2022-10-31T11:36:15;14.40;;;8.23;;
8993;SDS011;4532;50.886;4.700;2022-10-31T11:38:43;13.87;;;7.47;;
8993;SDS011;4532;50.886;4.700;2022-10-31T11:41:12;14.55;;;7.05;;
8993;SDS011;4532;50.886;4.700;2022-10-31T11:43:51;13.75;;;7.70;;
8993;SDS011;4532;50.886;4.700;2022-10-31T11:46:33;20.40;;;7.68;;
8993;SDS011;4532;50.886;4.700;2022-10-31T11:49:13;12.93;;;7.72;;
8993;SDS011;4532;50.886;4.700;2022-10-31T11:51:46;10.52;;;7.75;;
8993;SDS011;4532;50.886;4.700;2022-10-31T11:54:27;14.77;;;8.18;;
8993;SDS011;4532;50.886;4.700;2022-10-31T11:56:57;12.35;;;7.55;;
8993;SDS011;4532;50.886;4.700;2022-10-31T11:59:26;12.65;;;7.78;;
8993;SDS011;4532;50.886;4.700;2022-10-31T12:01:56;15.05;;;7.65;;
8993;SDS011;4532;50.886;4.700;2022-10-31T12:04:29;10.82;;;7.60;;
8993;SDS011;4532;50.886;4.700;2022-10-31T12:07:17;18.85;;;8.20;;
8993;SDS011;4532;50.886;4.700;2022-10-31T12:09:45;15.50;;;8.15;;
8993;SDS011;4532;50.886;4.700;2022-10-31T12:17:56;12.50;;;8.25;;
8993;SDS011;4532;50.886;4.700;2022-10-31T12:23:21;10.13;;;7.05;;
8993;SDS011;4532;50.886;4.700;2022-10-31T12:39:44;11.23;;;7.15;;
8993;SDS011;4532;50.886;4.700;2022-10-31T12:42:18;13.10;;;6.95;;
8993;SDS011;4532;50.886;4.700;2022-10-31T12:53:04;12.43;;;7.13;;
8993;SDS011;4532;50.886;4.700;2022-10-31T12:55:50;12.80;;;6.95;;
8993;SDS011;4532;50.886;4.700;2022-10-31T12:58:22;10.60;;;7.35;;
8993;SDS011;4532;50.886;4.700;2022-10-31T13:06:59;9.02;;;5.53;;
8993;SDS011;4532;50.886;4.700;2022-10-31T13:09:32;15.13;;;6.80;;
8993;SDS011;4532;50.886;4.700;2022-10-31T13:12:06;7.90;;;5.20;;
8993;SDS011;4532;50.886;4.700;2022-10-31T13:14:38;8.95;;;5.18;;
8993;SDS011;4532;50.886;4.700;2022-10-31T13:17:12;12.00;;;5.25;;
8993;SDS011;4532;50.886;4.700;2022-10-31T13:19:54;13.07;;;5.35;;
8993;SDS011;4532;50.886;4.700;2022-10-31T13:22:32;12.68;;;5.63;;
8993;SDS011;4532;50.886;4.700;2022-10-31T13:25:03;10.80;;;5.15;;
8993;SDS011;4532;50.886;4.700;2022-10-31T13:27:48;10.55;;;5.20;;
8993;SDS011;4532;50.886;4.700;2022-10-31T13:30:28;10.15;;;5.75;;
8993;SDS011;4532;50.886;4.700;2022-10-31T13:33:08;9.45;;;5.28;;
8993;SDS011;4532;50.886;4.700;2022-10-31T13:35:52;7.97;;;5.20;;
8993;SDS011;4532;50.886;4.700;2022-10-31T13:38:35;9.20;;;5.70;;
8993;SDS011;4532;50.886;4.700;2022-10-31T13:46:50;10.07;;;5.65;;
8993;SDS011;4532;50.886;4.700;2022-10-31T13:54:41;8.95;;;5.53;;
8993;SDS011;4532;50.886;4.700;2022-10-31T13:57:18;11.15;;;6.35;;
8993;SDS011;4532;50.886;4.700;2022-10-31T14:02:50;15.25;;;6.97;;
8993;SDS011;4532;50.886;4.700;2022-10-31T14:05:25;12.10;;;7.40;;
8993;SDS011;4532;50.886;4.700;2022-10-31T14:08:03;11.90;;;7.28;;
8993;SDS011;4532;50.886;4.700;2022-10-31T14:10:34;11.18;;;6.78;;
8993;SDS011;4532;50.886;4.700;2022-10-31T14:13:07;13.57;;;7.32;;
8993;SDS011;4532;50.886;4.700;2022-10-31T14:15:42;12.60;;;7.13;;
8993;SDS011;4532;50.886;4.700;2022-10-31T14:18:30;14.65;;;6.93;;
8993;SDS011;4532;50.886;4.700;2022-10-31T14:20:59;12.75;;;6.60;;
8993;SDS011;4532;50.886;4.700;2022-10-31T14:28:58;10.35;;;7.13;;
8993;SDS011;4532;50.886;4.700;2022-10-31T14:31:36;12.32;;;7.25;;
8993;SDS011;4532;50.886;4.700;2022-10-31T14:42:29;13.27;;;7.03;;
8993;SDS011;4532;50.886;4.700;2022-10-31T14:50:57;12.38;;;7.85;;
8993;SDS011;4532;50.886;4.700;2022-10-31T14:53:27;15.07;;;8.43;;
8993;SDS011;4532;50.886;4.700;2022-10-31T14:56:01;17.02;;;8.38;;
8993;SDS011;4532;50.886;4.700;2022-10-31T14:58:45;13.65;;;8.32;;
8993;SDS011;4532;50.886;4.700;2022-10-31T15:07:00;16.35;;;9.43;;
8993;SDS011;4532;50.886;4.700;2022-10-31T15:09:58;17.30;;;9.70;;
8993;SDS011;4532;50.886;4.700;2022-10-31T15:12:30;18.27;;;9.18;;
8993;SDS011;4532;50.886;4.700;2022-10-31T15:15:11;15.63;;;9.73;;
8993;SDS011;4532;50.886;4.700;2022-10-31T15:17:41;19.17;;;9.77;;
8993;SDS011;4532;50.886;4.700;2022-10-31T15:20:22;16.08;;;9.70;;
8993;SDS011;4532;50.886;4.700;2022-10-31T15:22:55;13.48;;;9.48;;
8993;SDS011;4532;50.886;4.700;2022-10-31T15:25:25;17.40;;;9.18;;
8993;SDS011;4532;50.886;4.700;2022-10-31T15:27:57;13.52;;;9.38;;
8993;SDS011;4532;50.886;4.700;2022-10-31T15:30:26;14.48;;;9.85;;
8993;SDS011;4532;50.886;4.700;2022-10-31T15:32:55;15.52;;;9.57;;
8993;SDS011;4532;50.886;4.700;2022-10-31T15:35:28;15.45;;;9.63;;
8993;SDS011;4532;50.886;4.700;2022-10-31T15:37:57;15.20;;;9.77;;
8993;SDS011;4532;50.886;4.700;2022-10-31T15:40:26;16.27;;;9.65;;
8993;SDS011;4532;50.886;4.700;2022-10-31T15:43:00;15.15;;;10.27;;
8993;SDS011;4532;50.886;4.700;2022-10-31T15:45:30;16.73;;;9.80;;
8993;SDS011;4532;50.886;4.700;2022-10-31T15:48:01;15.48;;;9.50;;
8993;SDS011;4532;50.886;4.700;2022-10-31T15:53:02;16.65;;;9.88;;
8993;SDS011;4532;50.886;4.700;2022-10-31T15:55:36;15.90;;;9.95;;
8993;SDS011;4532;50.886;4.700;2022-10-31T15:58:12;16.67;;;9.55;;
8993;SDS011;4532;50.886;4.700;2022-10-31T16:00:41;14.82;;;10.38;;
8993;SDS011;4532;50.886;4.700;2022-10-31T16:05:46;18.88;;;9.43;;
8993;SDS011;4532;50.886;4.700;2022-10-31T16:10:57;18.88;;;9.75;;
8993;SDS011;4532;50.886;4.700;2022-10-31T16:13:37;20.58;;;9.55;;
8993;SDS011;4532;50.886;4.700;2022-10-31T16:16:14;23.42;;;9.52;;
8993;SDS011;4532;50.886;4.700;2022-10-31T16:19:01;19.02;;;8.70;;
8993;SDS011;4532;50.886;4.700;2022-10-31T16:21:31;16.77;;;8.75;;
8993;SDS011;4532;50.886;4.700;2022-10-31T16:24:11;17.27;;;8.73;;
8993;SDS011;4532;50.886;4.700;2022-10-31T16:26:49;12.95;;;8.00;;
8993;SDS011;4532;50.886;4.700;2022-10-31T16:29:24;13.70;;;8.38;;
8993;SDS011;4532;50.886;4.700;2022-10-31T16:31:55;13.00;;;7.78;;
8993;SDS011;4532;50.886;4.700;2022-10-31T16:34:23;12.85;;;7.07;;
8993;SDS011;4532;50.886;4.700;2022-10-31T16:36:52;16.65;;;7.65;;
8993;SDS011;4532;50.886;4.700;2022-10-31T16:39:20;13.10;;;7.55;;
8993;SDS011;4532;50.886;4.700;2022-10-31T16:41:49;13.15;;;7.55;;
8993;SDS011;4532;50.886;4.700;2022-10-31T16:44:19;12.48;;;7.22;;
8993;SDS011;4532;50.886;4.700;2022-10-31T16:47:06;12.98;;;7.57;;
8993;SDS011;4532;50.886;4.700;2022-10-31T16:49:36;14.20;;;7.80;;
8993;SDS011;4532;50.886;4.700;2022-10-31T16:52:03;10.98;;;7.15;;
8993;SDS011;4532;50.886;4.700;2022-10-31T16:54:33;17.45;;;7.72;;
8993;SDS011;4532;50.886;4.700;2022-10-31T16:57:00;9.85;;;6.13;;
8993;SDS011;4532;50.886;4.700;2022-10-31T16:59:32;11.90;;;6.15;;
8993;SDS011;4532;50.886;4.700;2022-10-31T17:02:00;7.63;;;5.38;;
8993;SDS011;4532;50.886;4.700;2022-10-31T17:04:30;11.27;;;5.38;;
8993;SDS011;4532;50.886;4.700;2022-10-31T17:06:59;9.38;;;5.22;;
8993;SDS011;4532;50.886;4.700;2022-10-31T17:09:27;10.65;;;4.78;;
8993;SDS011;4532;50.886;4.700;2022-10-31T17:11:54;10.68;;;5.40;;
8993;SDS011;4532;50.886;4.700;2022-10-31T17:14:24;8.90;;;5.05;;
8993;SDS011;4532;50.886;4.700;2022-10-31T17:16:51;11.68;;;4.78;;
8993;SDS011;4532;50.886;4.700;2022-10-31T17:19:19;11.55;;;4.80;;
8993;SDS011;4532;50.886;4.700;2022-10-31T17:21:46;11.75;;;5.15;;
8993;SDS011;4532;50.886;4.700;2022-10-31T17:24:13;8.20;;;5.07;;
8993;SDS011;4532;50.886;4.700;2022-10-31T17:26:41;10.93;;;4.60;;
8993;SDS011;4532;50.886;4.700;2022-10-31T17:29:08;9.93;;;4.73;;
8993;SDS011;4532;50.886;4.700;2022-10-31T17:31:38;9.60;;;4.95;;
8993;SDS011;4532;50.886;4.700;2022-10-31T17:34:05;8.47;;;5.10;;
8993;SDS011;4532;50.886;4.700;2022-10-31T17:36:34;10.95;;;4.60;;
8993;SDS011;4532;50.886;4.700;2022-10-31T17:39:02;9.55;;;5.05;;
8993;SDS011;4532;50.886;4.700;2022-10-31T17:41:31;8.57;;;4.63;;
8993;SDS011;4532;50.886;4.700;2022-10-31T17:43:58;9.68;;;4.90;;
8993;SDS011;4532;50.886;4.700;2022-10-31T17:46:25;9.32;;;5.07;;
8993;SDS011;4532;50.886;4.700;2022-10-31T17:48:54;11.57;;;4.97;;
8993;SDS011;4532;50.886;4.700;2022-10-31T17:51:21;9.63;;;5.07;;
8993;SDS011;4532;50.886;4.700;2022-10-31T17:53:48;14.10;;;5.78;;
8993;SDS011;4532;50.886;4.700;2022-10-31T17:56:15;10.23;;;5.27;;
8993;SDS011;4532;50.886;4.700;2022-10-31T17:58:45;10.43;;;5.30;;
8993;SDS011;4532;50.886;4.700;2022-10-31T18:01:13;13.53;;;5.57;;
8993;SDS011;4532;50.886;4.700;2022-10-31T18:03:42;11.77;;;5.60;;
8993;SDS011;4532;50.886;4.700;2022-10-31T18:06:10;10.68;;;5.65;;
8993;SDS011;4532;50.886;4.700;2022-10-31T18:08:39;8.63;;;5.50;;
8993;SDS011;4532;50.886;4.700;2022-10-31T18:11:07;7.97;;;5.13;;
8993;SDS011;4532;50.886;4.700;2022-10-31T18:13:36;11.77;;;4.70;;